createdAt,value
2018-07-31T00:02:02.649Z,20.90
2018-07-31T00:04:32.301Z,20.90
2018-07-31T00:07:02.427Z,20.80
2018-07-31T00:09:36.359Z,20.80
2018-07-31T00:12:06.644Z,20.70
2018-07-31T00:14:36.140Z,20.70
2018-07-31T00:17:07.092Z,20.60
2018-07-31T00:19:36.974Z,20.60
2018-07-31T00:22:07.350Z,20.60
2018-07-31T00:24:36.853Z,20.50
2018-07-31T00:27:06.337Z,20.50
2018-07-31T00:29:35.831Z,20.50
2018-07-31T00:32:05.383Z,20.40
2018-07-31T00:34:35.792Z,20.40
2018-07-31T00:37:05.862Z,20.30
2018-07-31T00:39:35.491Z,20.30
2018-07-31T00:42:05.133Z,20.30
2018-07-31T00:44:34.712Z,20.30
2018-07-31T00:47:04.867Z,20.30
2018-07-31T00:49:35.737Z,20.30
2018-07-31T00:52:05.314Z,20.30
2018-07-31T00:54:34.803Z,20.30
2018-07-31T00:57:04.378Z,20.30
2018-07-31T00:59:34.325Z,20.40
2018-07-31T01:02:04.205Z,20.40
2018-07-31T01:04:33.940Z,20.50
2018-07-31T01:07:03.532Z,20.50
2018-07-31T01:09:33.140Z,20.60
2018-07-31T01:12:04.780Z,20.60
2018-07-31T01:14:35.826Z,20.60
2018-07-31T01:17:05.950Z,20.60
2018-07-31T01:19:35.432Z,20.60
2018-07-31T01:24:34.830Z,20.70
2018-07-31T01:29:34.350Z,20.70
2018-07-31T01:32:04.568Z,20.60
2018-07-31T01:34:35.396Z,20.60
2018-07-31T01:37:04.980Z,20.60
2018-07-31T01:39:36.068Z,20.60
2018-07-31T01:42:05.609Z,20.60
2018-07-31T01:44:35.268Z,20.60
2018-07-31T01:47:05.446Z,20.60
2018-07-31T01:49:35.140Z,20.60
2018-07-31T01:52:04.787Z,20.60
2018-07-31T01:54:39.034Z,20.50
2018-07-31T01:57:08.559Z,20.50
2018-07-31T01:59:38.094Z,20.50
2018-07-31T02:02:07.797Z,20.40
2018-07-31T02:04:37.340Z,20.30
2018-07-31T02:07:08.369Z,20.30
2018-07-31T02:09:38.057Z,20.20
2018-07-31T02:12:13.559Z,20.10
2018-07-31T02:14:43.215Z,20.10
2018-07-31T02:17:12.844Z,20.00
2018-07-31T02:19:43.367Z,20.00
2018-07-31T02:22:13.135Z,19.90
2018-07-31T02:37:43.865Z,19.80
2018-07-31T02:40:14.654Z,18.80
2018-07-31T02:42:44.245Z,18.80
2018-07-31T02:45:14.739Z,18.70
2018-07-31T02:47:45.469Z,18.70
2018-07-31T02:50:16.048Z,18.80
2018-07-31T02:52:45.550Z,18.80
2018-07-31T02:55:15.382Z,18.90
2018-07-31T02:57:45.093Z,18.90
2018-07-31T03:00:15.915Z,18.90
2018-07-31T03:02:45.949Z,18.90
2018-07-31T03:05:16.381Z,18.90
2018-07-31T03:10:20.190Z,18.90
2018-07-31T03:12:49.931Z,18.90
2018-07-31T03:15:19.535Z,18.90
2018-07-31T03:17:49.115Z,18.90
2018-07-31T03:20:18.621Z,18.80
2018-07-31T03:22:52.627Z,18.80
2018-07-31T03:25:26.778Z,18.80
2018-07-31T03:28:01.139Z,18.80
2018-07-31T03:30:31.071Z,18.80
2018-07-31T03:33:01.430Z,18.70
2018-07-31T03:38:00.299Z,18.70
2018-07-31T03:40:30.093Z,18.70
2018-07-31T03:42:59.991Z,18.60
2018-07-31T03:45:29.612Z,18.60
2018-07-31T03:47:59.115Z,18.60
2018-07-31T03:50:33.113Z,18.60
2018-07-31T03:53:03.475Z,18.50
2018-07-31T03:55:34.907Z,18.50
2018-07-31T03:58:05.027Z,18.50
2018-07-31T04:00:35.144Z,18.50
2018-07-31T04:03:05.929Z,18.50
2018-07-31T04:05:35.610Z,18.40
2018-07-31T04:08:06.159Z,18.40
2018-07-31T04:10:35.687Z,18.40
2018-07-31T04:13:05.336Z,18.40
2018-07-31T04:15:40.120Z,18.40
2018-07-31T04:20:39.652Z,18.30
2018-07-31T04:25:38.692Z,18.30
2018-07-31T04:28:08.824Z,18.30
2018-07-31T04:30:38.841Z,18.30
2018-07-31T04:33:08.302Z,18.30
2018-07-31T04:35:37.824Z,18.30
2018-07-31T04:38:08.824Z,18.30
2018-07-31T04:40:38.408Z,18.40
2018-07-31T04:43:08.296Z,18.30
2018-07-31T04:45:38.567Z,18.40
2018-07-31T04:48:08.101Z,18.40
2018-07-31T04:53:07.863Z,18.50
2018-07-31T04:55:38.041Z,18.50
2018-07-31T05:00:36.825Z,18.60
2018-07-31T05:03:06.365Z,18.60
2018-07-31T05:05:36.076Z,18.70
2018-07-31T05:08:06.605Z,18.80
2018-07-31T05:10:40.904Z,18.80
2018-07-31T05:13:11.479Z,18.80
2018-07-31T05:15:41.189Z,18.90
2018-07-31T05:18:10.675Z,19.00
2018-07-31T05:20:40.074Z,19.00
2018-07-31T05:23:10.187Z,19.00
2018-07-31T05:25:39.586Z,19.10
2018-07-31T05:30:38.454Z,19.20
2018-07-31T05:33:07.992Z,19.30
2018-07-31T05:35:39.966Z,19.40
2018-07-31T05:38:09.632Z,19.40
2018-07-31T05:40:39.140Z,19.40
2018-07-31T05:43:08.890Z,19.50
2018-07-31T05:45:38.476Z,19.60
2018-07-31T05:48:09.267Z,19.60
2018-07-31T05:50:39.122Z,19.70
2018-07-31T05:53:08.724Z,19.80
2018-07-31T05:55:42.314Z,19.80
2018-07-31T05:58:14.957Z,19.90
2018-07-31T06:00:47.400Z,20.00
2018-07-31T06:03:18.477Z,20.10
2018-07-31T06:05:47.962Z,20.20
2018-07-31T06:10:47.511Z,20.40
2018-07-31T06:13:18.679Z,20.50
2018-07-31T06:15:48.477Z,20.60
2018-07-31T06:18:18.565Z,20.70
2018-07-31T06:20:48.055Z,20.80
2018-07-31T06:23:17.825Z,20.90
2018-07-31T06:25:48.441Z,21.00
2018-07-31T06:28:17.968Z,21.10
2018-07-31T06:30:47.470Z,21.20
2018-07-31T06:33:17.159Z,21.40
2018-07-31T06:35:46.732Z,21.50
2018-07-31T06:38:16.736Z,21.60
2018-07-31T06:40:46.410Z,21.70
2018-07-31T06:43:16.984Z,21.80
2018-07-31T06:45:46.489Z,21.90
2018-07-31T06:48:21.635Z,22.00
2018-07-31T06:50:51.091Z,22.10
2018-07-31T06:53:20.544Z,22.20
2018-07-31T06:55:50.018Z,22.30
2018-07-31T06:58:20.512Z,22.40
2018-07-31T07:00:52.270Z,22.50
2018-07-31T07:03:26.067Z,22.70
2018-07-31T07:05:55.835Z,22.80
2018-07-31T07:08:28.657Z,22.90
2018-07-31T07:10:58.108Z,23.00
2018-07-31T07:13:27.636Z,23.10
2018-07-31T07:15:57.586Z,23.30
2018-07-31T07:18:27.141Z,23.40
2018-07-31T07:20:56.702Z,23.50
2018-07-31T07:23:26.781Z,23.70
2018-07-31T07:25:56.360Z,23.80
2018-07-31T07:28:25.943Z,24.00
2018-07-31T07:30:55.418Z,24.10
2018-07-31T07:35:55.293Z,24.40
2018-07-31T07:38:24.829Z,24.50
2018-07-31T07:40:54.365Z,24.70
2018-07-31T07:45:57.357Z,24.90
2018-07-31T07:48:26.880Z,25.00
2018-07-31T07:50:56.387Z,25.10
2018-07-31T07:53:25.939Z,25.20
2018-07-31T07:55:55.423Z,25.40
2018-07-31T07:58:25.810Z,25.50
2018-07-31T08:13:21.608Z,26.20
2018-07-31T08:15:52.763Z,26.20
2018-07-31T08:20:52.630Z,26.40
2018-07-31T08:23:22.834Z,26.50
2018-07-31T08:25:52.341Z,26.60
2018-07-31T08:28:21.870Z,26.60
2018-07-31T08:30:51.374Z,26.70
2018-07-31T08:33:21.014Z,26.90
2018-07-31T08:35:51.594Z,27.00
2018-07-31T08:38:21.116Z,27.10
2018-07-31T08:40:50.632Z,27.20
2018-07-31T08:43:20.424Z,27.40
2018-07-31T08:45:50.013Z,27.50
2018-07-31T08:50:49.004Z,27.80
2018-07-31T08:53:19.046Z,27.90
2018-07-31T08:55:48.729Z,28.00
2018-07-31T08:58:19.009Z,28.10
2018-07-31T09:00:48.637Z,28.20
2018-07-31T09:03:18.147Z,28.30
2018-07-31T09:05:47.653Z,28.40
2018-07-31T09:08:17.710Z,28.50
2018-07-31T09:10:47.147Z,28.60
2018-07-31T09:13:16.669Z,28.70
2018-07-31T09:15:46.982Z,28.80
2018-07-31T09:18:16.910Z,28.90
2018-07-31T09:20:47.623Z,29.00
2018-07-31T09:23:17.274Z,29.10
2018-07-31T09:25:47.777Z,29.20
2018-07-31T09:28:18.529Z,29.30
2018-07-31T09:30:54.150Z,29.40
2018-07-31T09:33:24.345Z,29.50
2018-07-31T09:35:55.735Z,29.60
2018-07-31T09:38:25.845Z,29.70
2018-07-31T09:40:55.959Z,29.80
2018-07-31T09:43:26.008Z,29.90
2018-07-31T09:45:56.754Z,30.00
2018-07-31T09:48:28.015Z,30.10
2018-07-31T09:53:26.866Z,30.40
2018-07-31T09:55:56.855Z,30.60
2018-07-31T09:58:26.344Z,30.80
2018-07-31T10:03:30.511Z,31.20
2018-07-31T10:06:00.662Z,31.40
2018-07-31T10:08:30.585Z,31.60
2018-07-31T10:11:00.357Z,31.70
2018-07-31T10:13:30.997Z,31.90
2018-07-31T10:16:05.267Z,32.10
2018-07-31T10:18:35.563Z,32.40
2018-07-31T10:21:05.687Z,32.60
2018-07-31T10:23:35.317Z,32.80
2018-07-31T10:26:05.541Z,33.00
2018-07-31T10:28:35.739Z,33.30
2018-07-31T10:31:05.404Z,33.50
2018-07-31T10:38:35.363Z,34.10
2018-07-31T10:41:04.984Z,34.30
2018-07-31T10:43:34.531Z,34.60
2018-07-31T10:46:05.040Z,34.80
2018-07-31T10:48:34.610Z,35.00
2018-07-31T10:51:04.317Z,35.20
2018-07-31T10:53:33.850Z,35.40
2018-07-31T10:56:03.419Z,35.60
2018-07-31T10:58:32.854Z,35.90
2018-07-31T11:01:02.328Z,36.10
2018-07-31T11:03:33.010Z,36.30
2018-07-31T11:06:02.519Z,36.60
2018-07-31T11:08:31.946Z,36.70
2018-07-31T11:11:01.458Z,36.90
2018-07-31T11:13:30.993Z,37.10
2018-07-31T11:16:00.455Z,37.30
2018-07-31T11:18:29.856Z,37.50
2018-07-31T11:20:59.534Z,37.70
2018-07-31T11:23:29.539Z,37.90
2018-07-31T11:25:59.018Z,38.10
2018-07-31T11:30:57.685Z,38.40
2018-07-31T11:33:27.671Z,38.50
2018-07-31T11:35:57.601Z,38.60
2018-07-31T11:38:27.118Z,38.70
2018-07-31T11:40:56.564Z,38.90
2018-07-31T11:43:26.695Z,38.90
2018-07-31T11:45:56.177Z,39.10
2018-07-31T11:50:55.181Z,39.30
2018-07-31T11:53:25.444Z,39.40
2018-07-31T11:55:55.608Z,39.60
2018-07-31T11:58:25.157Z,39.60
2018-07-31T12:00:54.675Z,39.70
2018-07-31T12:03:24.242Z,39.80
2018-07-31T12:08:22.954Z,40.10
2018-07-31T12:13:21.588Z,40.30
2018-07-31T12:15:51.090Z,40.50
2018-07-31T12:18:20.600Z,40.60
2018-07-31T12:20:50.234Z,40.70
2018-07-31T12:23:20.344Z,40.90
2018-07-31T12:25:50.011Z,41.00
2018-07-31T12:30:48.704Z,41.00
2018-07-31T12:33:18.155Z,40.80
2018-07-31T12:35:47.788Z,40.70
2018-07-31T12:38:17.394Z,40.70
2018-07-31T12:40:47.178Z,40.70
2018-07-31T12:43:16.794Z,40.90
2018-07-31T12:45:46.649Z,41.20
2018-07-31T12:48:17.016Z,41.50
2018-07-31T12:50:46.474Z,41.80
2018-07-31T12:53:16.709Z,42.10
2018-07-31T13:00:45.559Z,43.00
2018-07-31T13:03:15.306Z,43.30
2018-07-31T13:05:47.205Z,43.50
2018-07-31T13:08:17.732Z,43.70
2018-07-31T13:10:47.193Z,43.80
2018-07-31T13:13:16.855Z,43.80
2018-07-31T13:15:46.543Z,43.70
2018-07-31T13:18:16.153Z,43.50
2018-07-31T13:20:45.723Z,43.20
2018-07-31T13:23:15.359Z,42.90
2018-07-31T13:25:44.947Z,42.60
2018-07-31T13:28:14.425Z,42.60
2018-07-31T13:30:44.147Z,42.60
2018-07-31T13:33:13.896Z,42.60
2018-07-31T13:35:43.565Z,42.80
2018-07-31T13:38:13.214Z,43.00
2018-07-31T13:40:42.726Z,43.20
2018-07-31T13:43:13.051Z,43.30
2018-07-31T13:45:43.818Z,43.40
2018-07-31T13:48:14.162Z,43.40
2018-07-31T13:50:43.996Z,43.10
2018-07-31T13:53:13.622Z,42.70
2018-07-31T13:55:43.122Z,42.30
2018-07-31T13:58:13.289Z,41.90
2018-07-31T14:03:12.298Z,41.50
2018-07-31T14:08:11.776Z,41.90
2018-07-31T14:10:41.427Z,42.20
2018-07-31T14:15:41.375Z,43.00
2018-07-31T14:18:10.903Z,43.40
2018-07-31T14:20:40.515Z,43.90
2018-07-31T14:23:16.835Z,44.30
2018-07-31T14:25:46.942Z,44.70
2018-07-31T14:28:16.427Z,45.10
2018-07-31T14:30:46.529Z,45.30
2018-07-31T14:33:16.731Z,45.30
2018-07-31T14:35:46.281Z,45.30
2018-07-31T14:38:16.220Z,45.20
2018-07-31T14:43:15.154Z,45.00
2018-07-31T14:45:45.696Z,45.00
2018-07-31T14:48:15.616Z,45.00
2018-07-31T14:50:46.222Z,45.00
2018-07-31T14:53:16.518Z,45.00
2018-07-31T14:55:46.396Z,45.00
2018-07-31T14:58:16.338Z,45.00
2018-07-31T15:00:45.984Z,45.00
2018-07-31T15:03:15.780Z,45.00
2018-07-31T15:08:15.194Z,45.20
2018-07-31T15:10:44.860Z,45.30
2018-07-31T15:15:44.814Z,45.90
2018-07-31T15:18:14.523Z,46.30
2018-07-31T15:20:44.984Z,46.80
2018-07-31T15:25:44.828Z,48.00
2018-07-31T15:28:15.158Z,48.50
2018-07-31T15:30:45.289Z,49.00
2018-07-31T15:33:15.258Z,49.30
2018-07-31T15:35:45.813Z,49.60
2018-07-31T15:38:15.277Z,49.70
2018-07-31T15:40:45.564Z,50.00
2018-07-31T15:43:15.351Z,50.00
2018-07-31T15:45:45.199Z,50.10
2018-07-31T15:48:15.720Z,50.20
2018-07-31T15:50:46.551Z,50.20
2018-07-31T15:53:16.323Z,50.20
2018-07-31T15:55:46.285Z,50.20
2018-07-31T15:58:15.977Z,50.20
2018-07-31T16:00:45.827Z,50.10
2018-07-31T16:03:15.497Z,50.00
2018-07-31T16:05:45.814Z,50.00
2018-07-31T16:08:15.759Z,49.80
2018-07-31T16:10:51.360Z,49.70
2018-07-31T16:13:21.224Z,49.60
2018-07-31T16:15:50.823Z,49.50
2018-07-31T16:18:20.691Z,49.30
2018-07-31T16:20:50.524Z,49.20
2018-07-31T16:25:49.736Z,48.90
2018-07-31T16:28:19.682Z,48.80
2018-07-31T16:30:49.296Z,48.60
2018-07-31T16:33:19.012Z,48.40
2018-07-31T16:35:48.488Z,48.00
2018-07-31T16:38:18.129Z,47.50
2018-07-31T16:40:48.013Z,47.00
2018-07-31T16:43:17.701Z,46.40
2018-07-31T16:45:48.997Z,45.80
2018-07-31T16:48:18.593Z,45.20
2018-07-31T16:50:48.156Z,44.70
2018-07-31T16:53:19.099Z,44.20
2018-07-31T16:55:49.393Z,43.90
2018-07-31T16:58:19.957Z,43.60
2018-07-31T17:00:50.179Z,43.40
2018-07-31T17:03:19.946Z,43.20
2018-07-31T17:05:51.069Z,42.80
2018-07-31T17:08:22.488Z,42.60
2018-07-31T17:15:51.060Z,41.90
2018-07-31T17:18:21.338Z,41.70
2018-07-31T17:20:51.209Z,41.40
2018-07-31T17:23:20.999Z,41.20
2018-07-31T17:25:51.500Z,40.90
2018-07-31T17:28:21.009Z,40.70
2018-07-31T17:30:51.871Z,40.50
2018-07-31T17:33:21.812Z,40.20
2018-07-31T17:35:52.636Z,39.90
2018-07-31T17:38:22.078Z,39.70
2018-07-31T17:40:52.640Z,39.30
2018-07-31T17:43:22.999Z,39.00
2018-07-31T17:45:53.171Z,38.70
2018-07-31T17:50:53.813Z,38.10
2018-07-31T17:55:54.859Z,37.40
2018-07-31T17:58:24.476Z,37.20
2018-07-31T18:03:28.064Z,36.60
2018-07-31T18:05:59.446Z,36.20
2018-07-31T18:08:30.068Z,36.00
2018-07-31T18:10:59.854Z,35.70
2018-07-31T18:13:34.001Z,35.40
2018-07-31T18:21:36.583Z,34.40
2018-07-31T18:24:12.695Z,33.90
2018-07-31T18:26:43.887Z,33.50
2018-07-31T18:29:15.405Z,33.20
2018-07-31T18:31:45.427Z,32.80
2018-07-31T18:34:15.303Z,32.50
2018-07-31T18:36:45.138Z,32.10
2018-07-31T18:39:16.077Z,31.80
2018-07-31T18:41:45.672Z,31.60
2018-07-31T18:44:15.969Z,31.30
2018-07-31T18:46:49.568Z,31.00
2018-07-31T18:49:20.864Z,30.70
2018-07-31T18:51:50.616Z,30.50
2018-07-31T18:54:20.209Z,30.20
2018-07-31T18:56:50.416Z,29.90
2018-07-31T18:59:19.945Z,29.70
2018-07-31T19:01:49.540Z,29.40
2018-07-31T19:04:19.524Z,29.20
2018-07-31T19:06:49.657Z,29.00
2018-07-31T19:09:19.441Z,28.80
2018-07-31T19:11:49.744Z,28.60
2018-07-31T19:14:19.957Z,28.30
2018-07-31T19:16:49.568Z,28.20
2018-07-31T19:19:19.836Z,28.00
2018-07-31T19:21:51.187Z,27.80
2018-07-31T19:24:20.792Z,27.70
2018-07-31T19:26:51.775Z,27.60
2018-07-31T19:29:22.221Z,27.40
2018-07-31T19:31:55.578Z,27.30
2018-07-31T19:34:26.398Z,27.10
2018-07-31T19:36:56.521Z,27.00
2018-07-31T19:41:58.113Z,26.70
2018-07-31T19:44:27.663Z,26.60
2018-07-31T19:46:59.150Z,26.50
2018-07-31T19:49:29.515Z,26.40
2018-07-31T19:52:01.171Z,26.30
2018-07-31T19:54:32.241Z,26.20
2018-07-31T19:57:04.825Z,26.10
2018-07-31T19:59:51.637Z,26.00
2018-07-31T20:02:22.059Z,25.90
2018-07-31T20:04:51.737Z,25.80
2018-07-31T20:07:21.390Z,25.70
2018-07-31T20:09:51.014Z,25.60
2018-07-31T20:12:21.412Z,25.60
2018-07-31T20:14:51.056Z,25.50
2018-07-31T20:17:20.917Z,25.40
2018-07-31T20:19:50.599Z,25.30
2018-07-31T20:24:55.156Z,25.20
2018-07-31T20:27:24.768Z,25.10
2018-07-31T20:29:54.292Z,25.00
2018-07-31T20:32:28.080Z,25.00
2018-07-31T20:34:57.742Z,24.90
2018-07-31T20:37:27.216Z,24.70
2018-07-31T20:39:56.792Z,24.70
2018-07-31T20:42:26.977Z,24.60
2018-07-31T20:44:56.816Z,24.50
2018-07-31T20:49:57.566Z,24.40
2018-07-31T20:55:00.768Z,24.30
2018-07-31T20:57:30.375Z,24.20
2018-07-31T20:59:59.901Z,24.10
2018-07-31T21:02:30.133Z,24.10
2018-07-31T21:04:59.651Z,24.00
2018-07-31T21:07:29.159Z,23.90
2018-07-31T21:09:58.693Z,23.90
2018-07-31T21:12:28.493Z,23.80
2018-07-31T21:14:58.590Z,23.80
2018-07-31T21:17:28.597Z,23.70
2018-07-31T21:19:59.681Z,23.70
2018-07-31T21:22:29.697Z,23.70
2018-07-31T21:24:59.921Z,23.60
2018-07-31T21:27:29.581Z,23.50
2018-07-31T21:29:59.189Z,23.50
2018-07-31T21:32:28.863Z,23.50
2018-07-31T21:35:00.505Z,23.40
2018-07-31T21:37:30.436Z,23.40
2018-07-31T21:39:59.929Z,23.30
2018-07-31T21:42:29.390Z,23.30
2018-07-31T21:44:59.371Z,23.20
2018-07-31T21:47:29.182Z,23.20
2018-07-31T21:49:59.363Z,23.20
2018-07-31T21:52:29.096Z,23.10
2018-07-31T21:54:59.949Z,23.10
2018-07-31T21:57:34.008Z,23.00
2018-07-31T22:00:08.091Z,23.00
2018-07-31T22:02:38.400Z,22.90
2018-07-31T22:05:12.411Z,22.90
2018-07-31T22:07:43.046Z,22.90
2018-07-31T22:10:13.292Z,22.80
2018-07-31T22:12:42.844Z,22.80
2018-07-31T22:15:13.260Z,22.80
2018-07-31T22:17:44.271Z,22.80
2018-07-31T22:20:13.869Z,22.70
2018-07-31T22:22:43.808Z,22.70
2018-07-31T22:25:13.979Z,22.70
2018-07-31T22:27:43.505Z,22.70
2018-07-31T22:32:42.181Z,22.60
2018-07-31T22:35:11.728Z,22.60
2018-07-31T22:37:41.299Z,22.60
2018-07-31T22:40:11.037Z,22.60
2018-07-31T22:42:40.483Z,22.60
2018-07-31T22:45:10.051Z,22.50
2018-07-31T22:50:09.265Z,22.50
2018-07-31T22:55:08.003Z,22.40
2018-07-31T22:57:37.554Z,22.40
2018-07-31T23:00:07.505Z,22.40
2018-07-31T23:02:40.284Z,22.30
2018-07-31T23:05:11.460Z,22.30
2018-07-31T23:07:42.359Z,22.30
2018-07-31T23:10:12.430Z,22.30
2018-07-31T23:12:42.109Z,22.30
2018-07-31T23:15:11.664Z,22.30
2018-07-31T23:17:41.415Z,22.30
2018-07-31T23:20:10.994Z,22.30
2018-07-31T23:22:49.051Z,22.30
2018-07-31T23:25:18.528Z,22.30
2018-07-31T23:27:48.693Z,22.30
2018-07-31T23:30:18.157Z,22.30
2018-07-31T23:32:47.682Z,22.30
2018-07-31T23:35:18.180Z,22.20
2018-07-31T23:40:18.890Z,22.20
2018-07-31T23:42:48.905Z,22.20
2018-07-31T23:45:19.034Z,22.10
2018-07-31T23:47:49.670Z,22.10
2018-07-31T23:50:19.242Z,22.20
2018-07-31T23:52:48.760Z,22.20
2018-07-31T23:55:18.280Z,22.20
2018-07-31T23:57:47.858Z,22.20
